Time;durP1;ratioP1;P1;durP2;ratioP2;P2;SDS_P1;SDS_P2;PMS_P1;PMS_P2;Temp;Humidity;BMP_temperature;BMP_pressure;BME280_temperature;BME280_humidity;BME280_pressure;Samples;Min_cycle;Max_cycle;Signal;HPM_P1;HPM_P2
2021/01/08 09:57:27;;;;;;;10.83;4.83;;;4.70;99.90;;;;;;5054225;22;20233;-70
2021/01/08 09:59:54;;;;;;;9.63;4.37;;;4.70;99.90;;;;;;5035276;28;20212;-69
2021/01/08 10:02:35;;;;;;;9.20;4.37;;;4.80;99.90;;;;;;5035267;28;20213;-70
2021/01/08 10:05:02;;;;;;;9.57;4.57;;;4.90;99.90;;;;;;5035222;28;20224;-70
2021/01/08 10:07:41;;;;;;;9.37;3.93;;;5.00;99.90;;;;;;5035322;28;20201;-70
2021/01/08 10:10:09;;;;;;;11.73;4.70;;;5.00;99.90;;;;;;5030865;28;20232;-74
2021/01/08 10:12:45;;;;;;;12.83;4.00;;;5.00;99.90;;;;;;5039037;28;20208;-73
2021/01/08 10:15:13;;;;;;;7.37;3.77;;;5.10;99.90;;;;;;5041752;28;20232;-72
2021/01/08 10:17:46;;;;;;;7.70;3.80;;;4.90;99.90;;;;;;5041101;28;20225;-74
2021/01/08 10:20:15;;;;;;;8.87;4.37;;;5.10;99.90;;;;;;5044403;28;20204;-74
2021/01/08 10:22:46;;;;;;;6.83;3.70;;;5.30;99.90;;;;;;5044748;28;20215;-72
2021/01/08 10:25:26;;;;;;;8.27;4.00;;;5.40;99.90;;;;;;5043714;28;20286;-74
2021/01/08 10:27:54;;;;;;;9.43;3.77;;;5.60;99.90;;;;;;5044339;28;20646;-72
2021/01/08 10:30:21;;;;;;;7.83;3.93;;;5.50;99.90;;;;;;5044394;28;20243;-72
2021/01/08 10:32:48;;;;;;;10.70;4.10;;;5.50;99.90;;;;;;5044038;28;20287;-71
2021/01/08 10:35:17;;;;;;;9.90;4.80;;;5.70;99.90;;;;;;5038925;28;20224;-74
2021/01/08 10:37:44;;;;;;;9.83;4.07;;;5.80;99.90;;;;;;5032820;28;20212;-75
2021/01/08 10:40:11;;;;;;;8.57;3.97;;;5.70;99.90;;;;;;5031954;28;20209;-72
2021/01/08 10:42:37;;;;;;;14.27;3.97;;;5.70;99.90;;;;;;5032831;28;20205;-77
2021/01/08 10:45:06;;;;;;;9.13;4.17;;;5.60;99.90;;;;;;5032495;28;20225;-75
2021/01/08 10:47:32;;;;;;;10.47;3.87;;;5.50;99.90;;;;;;5031576;28;20219;-74
2021/01/08 10:49:59;;;;;;;10.50;4.37;;;5.60;99.90;;;;;;5031506;28;20270;-78
2021/01/08 10:52:26;;;;;;;9.73;4.17;;;5.40;99.90;;;;;;5032484;28;20724;-76
2021/01/08 10:54:53;;;;;;;8.97;3.33;;;5.40;99.90;;;;;;5031754;28;20217;-73
2021/01/08 10:57:19;;;;;;;9.20;4.23;;;5.50;99.90;;;;;;5032274;28;20216;-77
2021/01/08 10:59:46;;;;;;;9.10;4.47;;;5.60;99.90;;;;;;5032507;28;20216;-76
2021/01/08 11:02:13;;;;;;;7.37;4.10;;;5.70;99.90;;;;;;5031778;28;20209;-72
2021/01/08 11:04:40;;;;;;;10.67;3.90;;;5.70;99.90;;;;;;5032793;28;20231;-73
2021/01/08 11:07:06;;;;;;;7.20;3.83;;;5.60;99.90;;;;;;5031939;28;20201;-71
2021/01/08 11:09:33;;;;;;;10.20;4.30;;;5.70;99.90;;;;;;5031496;28;20228;-73
2021/01/08 11:11:59;;;;;;;11.37;4.37;;;5.60;99.90;;;;;;5032601;28;20236;-74
2021/01/08 11:14:26;;;;;;;8.23;3.47;;;5.60;99.90;;;;;;5031880;28;20225;-75
2021/01/08 11:16:52;;;;;;;7.73;3.67;;;5.80;99.90;;;;;;5031546;28;20666;-72
2021/01/08 11:19:19;;;;;;;11.67;4.53;;;5.70;99.90;;;;;;5031795;28;20220;-72
2021/01/08 11:21:46;;;;;;;9.97;3.80;;;5.90;99.90;;;;;;5031245;28;20219;-74
2021/01/08 11:24:12;;;;;;;10.17;3.97;;;5.80;99.90;;;;;;5031854;28;20283;-73
2021/01/08 11:26:39;;;;;;;8.27;3.80;;;5.90;99.90;;;;;;5031776;28;20729;-70
2021/01/08 11:29:05;;;;;;;7.60;3.40;;;6.00;99.90;;;;;;5031664;28;20666;-72
2021/01/08 11:31:31;;;;;;;7.60;3.57;;;6.00;99.90;;;;;;5031346;28;20204;-73
2021/01/08 11:33:58;;;;;;;9.07;4.50;;;6.00;99.90;;;;;;5031230;28;20583;-72
2021/01/08 11:36:25;;;;;;;8.40;3.73;;;5.90;99.90;;;;;;5031726;28;20716;-71
2021/01/08 11:38:51;;;;;;;9.57;3.43;;;6.00;99.90;;;;;;5031226;28;20268;-72
2021/01/08 11:41:18;;;;;;;9.33;4.27;;;5.90;99.90;;;;;;5031566;28;20710;-74
2021/01/08 11:43:45;;;;;;;11.60;4.10;;;6.00;99.90;;;;;;5032117;28;20224;-79
2021/01/08 11:46:15;;;;;;;7.73;4.10;;;5.80;99.90;;;;;;5031504;28;20212;-77
2021/01/08 11:48:41;;;;;;;8.20;4.10;;;5.80;99.90;;;;;;5031747;28;20262;-76
2021/01/08 11:51:10;;;;;;;9.97;4.17;;;5.90;99.90;;;;;;5033099;28;20209;-69
2021/01/08 11:53:41;;;;;;;7.60;3.77;;;5.90;99.90;;;;;;5033168;28;20302;-68
2021/01/08 11:56:09;;;;;;;11.93;3.80;;;5.90;99.90;;;;;;5032344;28;20201;-70
2021/01/08 11:58:36;;;;;;;6.70;3.10;;;5.90;99.90;;;;;;5029194;28;20213;-68
2021/01/08 12:01:03;;;;;;;7.93;3.93;;;6.10;99.90;;;;;;5021747;28;20310;-69
2021/01/08 12:03:29;;;;;;;9.13;3.30;;;6.20;99.90;;;;;;5026325;28;20594;-68
2021/01/08 12:05:55;;;;;;;8.57;3.80;;;6.10;99.90;;;;;;5027328;28;20208;-68
2021/01/08 12:08:21;;;;;;;9.73;4.17;;;6.10;99.90;;;;;;5028777;28;20270;-68
2021/01/08 12:10:48;;;;;;;8.50;3.40;;;6.20;99.90;;;;;;5028868;28;20705;-68
2021/01/08 12:13:15;;;;;;;7.47;3.57;;;6.10;99.90;;;;;;5024327;28;20208;-68
2021/01/08 12:15:42;;;;;;;8.07;3.97;;;6.20;99.90;;;;;;5026077;28;20205;-68
2021/01/08 12:18:09;;;;;;;11.77;4.70;;;6.20;99.90;;;;;;5031265;28;20212;-68
2021/01/08 12:20:36;;;;;;;8.10;3.73;;;6.30;99.90;;;;;;5029183;28;20303;-69
2021/01/08 12:23:03;;;;;;;13.60;3.97;;;6.50;99.90;;;;;;5023471;28;20232;-68
2021/01/08 12:25:29;;;;;;;8.47;3.30;;;6.60;99.90;;;;;;5027552;28;20216;-69
2021/01/08 12:27:56;;;;;;;7.50;4.00;;;6.60;99.90;;;;;;5025313;28;20709;-69
2021/01/08 12:30:23;;;;;;;8.80;3.53;;;6.60;99.90;;;;;;5018725;28;20737;-69
2021/01/08 12:32:49;;;;;;;11.27;4.30;;;6.60;99.90;;;;;;5022884;28;20208;-68
2021/01/08 12:35:17;;;;;;;6.57;3.40;;;6.60;99.90;;;;;;5029162;28;20259;-68
2021/01/08 12:37:43;;;;;;;12.03;3.93;;;6.50;99.90;;;;;;5023164;28;20210;-68
2021/01/08 12:40:11;;;;;;;8.77;3.87;;;6.60;99.90;;;;;;5026354;28;20721;-68
2021/01/08 12:42:37;;;;;;;9.23;3.67;;;6.60;99.90;;;;;;5029353;28;20200;-67
2021/01/08 12:45:05;;;;;;;6.97;3.60;;;6.70;99.90;;;;;;5024689;28;20224;-68
2021/01/08 12:47:32;;;;;;;8.20;3.63;;;6.60;99.90;;;;;;5028497;28;20206;-68
2021/01/08 12:49:58;;;;;;;8.90;4.17;;;6.60;99.90;;;;;;5029520;28;20616;-68
2021/01/08 12:52:27;;;;;;;6.13;3.53;;;6.60;99.90;;;;;;5021254;28;20206;-68
2021/01/08 12:54:54;;;;;;;11.47;3.27;;;6.70;99.90;;;;;;5025502;28;20217;-68
2021/01/08 12:57:20;;;;;;;6.97;3.50;;;6.90;99.90;;;;;;5031781;28;20212;-68
2021/01/08 12:59:46;;;;;;;7.53;3.67;;;6.90;99.90;;;;;;5022557;28;20270;-68
2021/01/08 13:02:13;;;;;;;5.90;3.17;;;7.00;99.90;;;;;;5024366;28;20217;-68
2021/01/08 13:04:40;;;;;;;7.97;3.73;;;7.00;99.90;;;;;;5023303;28;20225;-68
2021/01/08 13:07:06;;;;;;;7.23;3.43;;;7.00;99.90;;;;;;5029929;28;20201;-68
2021/01/08 13:09:32;;;;;;;6.87;3.73;;;7.10;99.90;;;;;;5021982;28;20228;-69
2021/01/08 13:11:59;;;;;;;9.03;3.13;;;7.20;99.90;;;;;;5027907;28;20204;-68
2021/01/08 13:14:25;;;;;;;6.83;3.17;;;7.10;99.90;;;;;;5028825;28;20233;-68
2021/01/08 13:16:53;;;;;;;9.10;3.20;;;7.30;99.90;;;;;;5035730;28;20236;-68
2021/01/08 13:19:21;;;;;;;7.20;3.50;;;7.40;99.90;;;;;;5015862;28;20210;-70
2021/01/08 13:21:47;;;;;;;12.57;3.67;;;7.30;99.90;;;;;;5015632;28;20205;-68
2021/01/08 13:24:14;;;;;;;5.73;3.07;;;7.20;99.90;;;;;;5016062;28;20229;-70
2021/01/08 13:26:40;;;;;;;7.70;3.53;;;7.20;99.90;;;;;;5016261;28;20213;-68
2021/01/08 13:29:06;;;;;;;6.13;2.93;;;7.10;99.90;;;;;;5016070;28;20213;-69
2021/01/08 13:31:32;;;;;;;6.57;3.93;;;6.90;99.90;;;;;;5016218;28;20205;-68
2021/01/08 13:33:59;;;;;;;5.13;3.13;;;6.80;99.90;;;;;;5016161;28;20591;-70
2021/01/08 13:36:26;;;;;;;7.00;3.23;;;6.60;99.90;;;;;;5015909;28;20671;-68
2021/01/08 13:38:54;;;;;;;6.40;3.07;;;6.60;99.90;;;;;;5015981;28;20206;-68
2021/01/08 13:41:21;;;;;;;7.87;3.00;;;6.70;99.90;;;;;;5015889;28;20240;-68
2021/01/08 13:43:47;;;;;;;6.23;3.30;;;6.80;99.90;;;;;;5015871;28;20693;-67
2021/01/08 13:46:14;;;;;;;5.50;3.30;;;6.90;99.90;;;;;;5015955;28;20214;-68
2021/01/08 13:48:41;;;;;;;8.97;2.87;;;7.00;99.90;;;;;;5016228;28;20208;-68
2021/01/08 13:51:07;;;;;;;5.50;3.00;;;7.10;99.90;;;;;;5014474;28;20265;-68
2021/01/08 13:53:34;;;;;;;5.50;3.07;;;6.80;99.90;;;;;;5034226;28;20228;-69
2021/01/08 13:56:01;;;;;;;5.17;3.50;;;6.90;99.90;;;;;;5034533;28;20213;-69
2021/01/08 13:58:27;;;;;;;7.80;3.13;;;6.80;99.90;;;;;;5034793;28;20557;-69
2021/01/08 14:00:53;;;;;;;6.10;3.37;;;6.70;99.90;;;;;;5035031;28;20209;-69
2021/01/08 14:03:20;;;;;;;5.83;2.87;;;6.70;99.90;;;;;;5030921;28;20674;-77
2021/01/08 14:05:47;;;;;;;5.17;2.83;;;6.70;99.90;;;;;;5032903;28;20216;-77
2021/01/08 14:08:13;;;;;;;6.73;3.40;;;6.60;99.90;;;;;;5033262;28;20650;-87
2021/01/08 14:10:41;;;;;;;7.43;3.03;;;6.70;99.90;;;;;;5033787;28;20706;-81
2021/01/08 14:13:07;;;;;;;6.57;3.10;;;6.70;99.90;;;;;;5035299;28;20204;-81
2021/01/08 14:15:33;;;;;;;8.87;4.00;;;6.70;99.90;;;;;;5035162;28;20288;-82
2021/01/08 14:17:59;;;;;;;7.17;3.70;;;6.70;99.90;;;;;;5035025;28;20212;-80
2021/01/08 14:20:26;;;;;;;9.27;3.80;;;6.80;99.90;;;;;;5035357;28;20598;-83
2021/01/08 14:22:52;;;;;;;7.33;3.80;;;6.70;99.90;;;;;;5034575;28;20205;-86
2021/01/08 14:25:18;;;;;;;8.53;3.80;;;6.50;99.90;;;;;;5035135;28;20228;-79
2021/01/08 14:27:45;;;;;;;6.30;3.20;;;6.60;99.90;;;;;;5035075;28;20213;-83
2021/01/08 14:30:13;;;;;;;8.53;4.20;;;6.60;99.90;;;;;;5034815;28;20263;-87
2021/01/08 14:32:39;;;;;;;8.40;3.80;;;6.50;99.90;;;;;;5036068;28;20204;-77
2021/01/08 14:35:06;;;;;;;6.17;3.33;;;6.60;99.90;;;;;;5036797;28;20243;-82
2021/01/08 14:37:36;;;;;;;8.73;3.30;;;6.70;99.90;;;;;;5034669;28;20666;-86
2021/01/08 14:40:04;;;;;;;7.63;3.57;;;6.90;99.90;;;;;;5034674;28;20209;-76
2021/01/08 14:42:30;;;;;;;7.63;4.00;;;6.80;99.90;;;;;;5034186;28;20255;-76
2021/01/08 14:44:57;;;;;;;7.17;3.97;;;6.70;99.90;;;;;;5033801;28;20579;-78
2021/01/08 14:47:24;;;;;;;8.67;4.53;;;6.60;99.90;;;;;;5034043;28;20303;-76
2021/01/08 14:49:50;;;;;;;8.03;4.07;;;6.50;99.90;;;;;;5033467;28;20220;-75
2021/01/08 14:52:17;;;;;;;8.07;3.93;;;6.50;99.90;;;;;;5029511;28;20910;-74
2021/01/08 14:54:43;;;;;;;7.07;3.57;;;6.60;99.90;;;;;;5032701;28;20229;-73
2021/01/08 14:57:10;;;;;;;7.27;4.20;;;6.50;99.90;;;;;;5032354;28;20212;-77
2021/01/08 14:59:36;;;;;;;11.03;4.17;;;6.50;99.90;;;;;;5031759;28;20205;-78
2021/01/08 15:02:03;;;;;;;10.73;4.57;;;6.60;99.90;;;;;;5032172;28;20291;-70
2021/01/08 15:04:30;;;;;;;9.70;4.43;;;6.70;99.90;;;;;;5031608;28;20229;-72
2021/01/08 15:06:56;;;;;;;9.30;3.90;;;6.70;99.90;;;;;;5031142;28;20209;-75
2021/01/08 15:09:22;;;;;;;8.00;4.00;;;6.70;99.90;;;;;;5032192;28;20229;-82
2021/01/08 15:11:49;;;;;;;7.97;3.97;;;6.80;99.90;;;;;;5032120;28;20201;-74
2021/01/08 15:14:15;;;;;;;8.43;3.90;;;6.60;99.90;;;;;;5031480;28;20717;-73
2021/01/08 15:16:41;;;;;;;9.60;3.83;;;6.60;99.90;;;;;;5031816;28;20561;-70
2021/01/08 15:19:09;;;;;;;9.23;4.23;;;6.70;99.90;;;;;;5032294;28;20213;-69
2021/01/08 15:21:35;;;;;;;9.43;4.60;;;6.80;99.90;;;;;;5030889;28;20205;-74
2021/01/08 15:24:01;;;;;;;9.27;4.13;;;6.80;99.90;;;;;;5032318;28;20228;-70
2021/01/08 15:26:28;;;;;;;9.90;4.30;;;6.80;99.90;;;;;;5031575;28;20663;-74
2021/01/08 15:28:54;;;;;;;8.67;4.00;;;6.80;99.90;;;;;;5030643;28;20735;-73
2021/01/08 15:31:25;;;;;;;6.27;4.03;;;6.70;99.90;;;;;;5031726;28;20229;-72
2021/01/08 15:33:51;;;;;;;8.20;4.13;;;6.80;99.90;;;;;;5031677;28;20232;-72
2021/01/08 15:36:18;;;;;;;14.20;4.27;;;6.70;99.90;;;;;;5032615;28;20578;-72
2021/01/08 15:38:45;;;;;;;6.77;3.93;;;6.70;99.90;;;;;;5033400;28;20200;-71
2021/01/08 15:41:13;;;;;;;10.70;4.03;;;6.60;99.90;;;;;;5032784;28;20264;-72
2021/01/08 15:43:40;;;;;;;6.73;3.40;;;6.60;99.90;;;;;;5032533;28;20752;-71
2021/01/08 15:46:07;;;;;;;7.67;3.90;;;6.60;99.90;;;;;;5032901;28;20208;-72
2021/01/08 15:48:34;;;;;;;7.60;3.83;;;6.60;99.90;;;;;;5032810;28;20224;-71
2021/01/08 15:51:00;;;;;;;9.47;3.90;;;6.60;99.90;;;;;;5032771;28;20240;-71
2021/01/08 15:53:28;;;;;;;8.80;4.40;;;6.60;99.90;;;;;;5033232;28;20229;-71
2021/01/08 15:55:55;;;;;;;9.87;4.20;;;6.60;99.90;;;;;;5032948;28;20252;-71
2021/01/08 15:58:21;;;;;;;9.97;4.33;;;6.60;99.90;;;;;;5032319;28;20614;-72
2021/01/08 16:00:50;;;;;;;7.37;4.33;;;6.50;99.90;;;;;;5029442;28;20209;-72
2021/01/08 16:03:16;;;;;;;8.03;3.80;;;6.50;99.90;;;;;;5032572;28;20209;-72
2021/01/08 16:05:44;;;;;;;6.43;3.73;;;5.90;99.90;;;;;;5032457;28;20201;-71
2021/01/08 16:08:10;;;;;;;5.40;3.00;;;5.60;99.90;;;;;;5032646;28;20205;-72
2021/01/08 16:10:37;;;;;;;6.20;3.10;;;5.20;99.90;;;;;;5032291;28;20259;-70
2021/01/08 16:13:03;;;;;;;6.50;3.00;;;5.10;99.90;;;;;;5032301;28;20214;-70
2021/01/08 16:15:30;;;;;;;4.53;2.70;;;5.20;99.90;;;;;;5032237;28;20201;-72
2021/01/08 16:17:57;;;;;;;3.87;2.40;;;5.10;99.90;;;;;;5032794;28;20208;-72
2021/01/08 16:20:24;;;;;;;6.93;3.03;;;5.10;99.90;;;;;;5032621;28;20799;-73
2021/01/08 16:22:51;;;;;;;7.13;2.97;;;5.20;99.90;;;;;;5032284;28;20540;-73
2021/01/08 16:25:17;;;;;;;5.50;2.97;;;5.30;99.90;;;;;;5032660;28;20232;-70
2021/01/08 16:27:45;;;;;;;8.53;3.67;;;5.10;99.90;;;;;;5032235;28;20203;-71
2021/01/08 16:30:12;;;;;;;6.93;3.20;;;5.20;99.90;;;;;;5032350;28;20584;-70
2021/01/08 16:32:39;;;;;;;3.10;2.60;;;5.10;99.90;;;;;;5031842;28;20606;-73
2021/01/08 16:35:06;;;;;;;7.57;2.90;;;5.10;99.90;;;;;;5032759;28;20228;-74
2021/01/08 16:37:33;;;;;;;6.17;3.33;;;5.20;99.90;;;;;;5032594;28;20216;-70
2021/01/08 16:39:59;;;;;;;7.20;3.37;;;5.30;99.90;;;;;;5032791;28;20215;-71
2021/01/08 16:42:25;;;;;;;6.00;3.10;;;5.40;99.90;;;;;;5032846;28;20258;-71
2021/01/08 16:44:52;;;;;;;6.93;3.87;;;5.30;99.90;;;;;;5032359;28;20703;-72
2021/01/08 16:47:19;;;;;;;9.57;4.27;;;5.20;99.90;;;;;;5036381;28;20209;-71
2021/01/08 16:49:46;;;;;;;9.47;4.00;;;5.30;99.90;;;;;;5036398;28;20710;-71
2021/01/08 16:52:12;;;;;;;7.60;3.70;;;5.40;99.90;;;;;;5036430;28;20209;-70
2021/01/08 16:54:39;;;;;;;8.90;4.40;;;5.50;99.90;;;;;;5036552;28;20225;-70
2021/01/08 16:57:05;;;;;;;9.60;5.03;;;5.50;99.90;;;;;;5036350;28;20212;-71
2021/01/08 16:59:32;;;;;;;10.07;4.50;;;5.40;99.90;;;;;;5036372;28;20217;-70
2021/01/08 17:01:59;;;;;;;7.30;3.97;;;5.40;99.90;;;;;;5036276;28;20689;-71
2021/01/08 17:04:25;;;;;;;10.13;4.87;;;5.40;99.90;;;;;;5036467;28;20221;-70
2021/01/08 17:06:52;;;;;;;7.87;3.57;;;5.50;99.90;;;;;;5036321;28;20205;-71
2021/01/08 17:09:21;;;;;;;11.33;5.13;;;5.60;99.90;;;;;;5036219;28;20209;-72
2021/01/08 17:11:47;;;;;;;10.17;4.53;;;5.60;99.90;;;;;;5035643;28;20209;-71
2021/01/08 17:14:13;;;;;;;7.80;4.27;;;5.40;99.90;;;;;;5036054;28;20220;-71
2021/01/08 17:16:39;;;;;;;7.77;4.50;;;5.40;99.90;;;;;;5035948;28;20566;-73
2021/01/08 17:19:06;;;;;;;8.73;4.87;;;5.40;99.90;;;;;;5026771;28;20230;-72
2021/01/08 17:21:34;;;;;;;8.40;4.23;;;5.40;99.90;;;;;;5019904;28;20213;-71
2021/01/08 17:24:00;;;;;;;8.47;4.40;;;5.30;99.90;;;;;;5024107;28;20231;-71
2021/01/08 17:26:33;;;;;;;8.37;4.63;;;5.30;99.90;;;;;;5016754;28;20209;-71
2021/01/08 17:28:59;;;;;;;9.77;4.67;;;5.30;99.90;;;;;;5021292;28;20571;-71
2021/01/08 17:31:25;;;;;;;6.77;4.07;;;5.40;99.90;;;;;;5019733;28;20233;-71
2021/01/08 17:33:51;;;;;;;7.30;4.37;;;5.60;99.90;;;;;;5018546;28;20233;-72
2021/01/08 17:36:19;;;;;;;10.33;4.73;;;5.70;99.90;;;;;;5025156;28;20259;-72
2021/01/08 17:38:46;;;;;;;7.73;4.20;;;5.70;99.90;;;;;;5019681;28;20227;-73
2021/01/08 17:41:13;;;;;;;8.33;4.47;;;5.70;99.90;;;;;;5024586;28;20217;-71
2021/01/08 17:43:40;;;;;;;7.27;3.93;;;5.70;99.90;;;;;;5019775;28;20658;-73
2021/01/08 17:46:06;;;;;;;8.47;4.07;;;5.70;99.90;;;;;;5018166;28;20271;-73
2021/01/08 17:48:33;;;;;;;7.80;4.37;;;5.60;99.90;;;;;;5023946;28;20208;-71
2021/01/08 17:50:59;;;;;;;7.27;4.30;;;5.70;99.90;;;;;;5026313;28;20237;-73
2021/01/08 17:53:26;;;;;;;7.80;4.30;;;5.70;99.90;;;;;;5022437;28;20280;-72
2021/01/08 17:55:53;;;;;;;7.13;4.20;;;5.80;99.90;;;;;;5024248;28;20194;-71
2021/01/08 17:58:20;;;;;;;7.30;4.23;;;5.80;99.90;;;;;;5022394;28;20216;-71
2021/01/08 18:00:46;;;;;;;7.47;3.80;;;5.70;99.90;;;;;;5027010;28;20683;-71
2021/01/08 18:03:13;;;;;;;9.47;4.63;;;5.60;99.90;;;;;;5015836;28;20209;-72
2021/01/08 18:05:40;;;;;;;11.43;4.60;;;5.60;99.90;;;;;;5021185;28;20212;-71
2021/01/08 18:08:07;;;;;;;11.43;4.43;;;5.60;99.90;;;;;;5028228;28;20204;-73
2021/01/08 18:10:34;;;;;;;7.60;4.30;;;5.70;99.90;;;;;;5035904;28;20233;-71
2021/01/08 18:13:00;;;;;;;8.90;4.90;;;5.80;99.90;;;;;;5026464;28;20208;-71
2021/01/08 18:15:26;;;;;;;10.60;5.47;;;5.50;99.90;;;;;;5035524;28;20236;-72
2021/01/08 18:17:52;;;;;;;11.53;6.27;;;5.50;99.90;;;;;;5026457;28;20227;-71
2021/01/08 18:20:19;;;;;;;15.53;5.43;;;5.40;99.90;;;;;;5031936;28;20216;-71
2021/01/08 18:22:46;;;;;;;10.40;5.13;;;5.20;99.90;;;;;;5030408;28;20221;-73
2021/01/08 18:25:12;;;;;;;11.67;5.87;;;5.00;99.90;;;;;;5032448;28;20633;-72
2021/01/08 18:27:40;;;;;;;10.17;5.57;;;5.00;99.90;;;;;;5035052;28;20205;-71
2021/01/08 18:30:09;;;;;;;8.73;4.90;;;5.00;99.90;;;;;;5035290;28;20228;-71
2021/01/08 18:32:35;;;;;;;11.87;5.43;;;5.00;99.90;;;;;;5028266;28;20797;-71
2021/01/08 18:35:02;;;;;;;9.07;4.30;;;5.20;99.90;;;;;;5032080;28;20228;-72
2021/01/08 18:37:28;;;;;;;9.57;4.90;;;5.50;99.90;;;;;;5025717;28;20536;-71
2021/01/08 18:39:54;;;;;;;9.40;5.07;;;5.40;99.90;;;;;;5027390;28;20215;-72
2021/01/08 18:42:20;;;;;;;8.87;5.07;;;5.40;99.90;;;;;;5034394;28;20212;-70
2021/01/08 18:44:47;;;;;;;8.83;5.30;;;5.20;99.90;;;;;;5029724;28;20229;-72
2021/01/08 18:47:14;;;;;;;9.37;5.20;;;5.30;99.90;;;;;;5027520;28;20209;-71
2021/01/08 18:49:40;;;;;;;11.43;6.07;;;5.40;99.90;;;;;;5019347;28;20233;-71
2021/01/08 18:52:08;;;;;;;9.57;4.90;;;5.30;99.90;;;;;;5025313;28;20205;-72
2021/01/08 18:54:35;;;;;;;9.83;4.60;;;5.20;99.90;;;;;;5020798;28;20225;-71
2021/01/08 18:57:01;;;;;;;9.30;4.83;;;5.00;99.90;;;;;;5022598;28;20206;-71
2021/01/08 18:59:27;;;;;;;12.83;5.70;;;4.90;99.90;;;;;;5016184;28;20241;-71
2021/01/08 19:02:00;;;;;;;15.27;6.33;;;4.80;99.90;;;;;;5024590;28;20266;-73
2021/01/08 19:04:26;;;;;;;11.63;5.70;;;4.80;99.90;;;;;;5019045;28;20228;-71
2021/01/08 19:06:52;;;;;;;11.20;5.53;;;4.90;99.90;;;;;;5023038;28;20576;-71
2021/01/08 19:09:18;;;;;;;13.40;6.20;;;4.80;99.90;;;;;;5013351;28;20209;-72
2021/01/08 19:11:48;;;;;;;9.87;5.63;;;4.60;99.90;;;;;;5023859;28;20576;-72
2021/01/08 19:14:14;;;;;;;13.17;6.23;;;4.60;99.90;;;;;;5020596;28;20230;-71
2021/01/08 19:16:40;;;;;;;11.20;5.00;;;4.70;99.90;;;;;;5019734;28;20682;-72
2021/01/08 19:19:07;;;;;;;11.37;5.57;;;4.80;99.90;;;;;;5023900;28;20308;-71
2021/01/08 19:21:33;;;;;;;11.30;6.03;;;4.90;99.90;;;;;;5024218;28;20201;-72
2021/01/08 19:24:00;;;;;;;12.87;5.50;;;5.00;99.90;;;;;;5018609;28;20217;-72
2021/01/08 19:26:27;;;;;;;11.83;5.27;;;5.10;99.90;;;;;;5019071;28;20590;-73
2021/01/08 19:28:54;;;;;;;8.67;4.90;;;4.80;99.90;;;;;;5021743;28;20213;-74
2021/01/08 19:31:20;;;;;;;10.07;4.87;;;4.70;99.90;;;;;;5017702;28;20232;-73
2021/01/08 19:33:47;;;;;;;10.47;5.77;;;4.70;99.90;;;;;;5027197;28;20225;-74
2021/01/08 19:36:19;;;;;;;9.37;5.23;;;4.50;99.90;;;;;;5024399;28;20213;-79
